createdAt,value
2018-12-14T00:00:06.749Z,102112.54
2018-12-14T00:02:13.311Z,102117.73
2018-12-14T00:04:17.911Z,102116.09
2018-12-14T00:06:25.968Z,102118.53
2018-12-14T00:08:30.582Z,102122.45
2018-12-14T00:10:35.365Z,102121.95
2018-12-14T00:12:40.048Z,102118.22
2018-12-14T00:14:43.073Z,102120.25
2018-12-14T00:16:47.755Z,102122.42
2018-12-14T00:20:56.495Z,102122.33
2018-12-14T00:23:04.314Z,102126.55
2018-12-14T00:25:09.639Z,102126.55
2018-12-14T00:27:21.855Z,102133.95
2018-12-14T00:29:26.554Z,102136.69
2018-12-14T00:31:31.449Z,102130.27
2018-12-14T00:33:36.178Z,102128.30
2018-12-14T00:35:41.550Z,102092.20
2018-12-14T00:37:48.926Z,102128.31
2018-12-14T00:39:56.565Z,102136.50
2018-12-14T00:42:01.503Z,102136.91
2018-12-14T00:44:06.202Z,102137.11
2018-12-14T00:46:11.137Z,102135.22
2018-12-14T00:48:18.879Z,102137.72
2018-12-14T00:50:23.872Z,102147.09
2018-12-14T00:52:31.575Z,102149.13
2018-12-14T00:54:39.239Z,102145.75
2018-12-14T00:56:44.220Z,102150.27
2018-12-14T00:58:52.072Z,102153.05
2018-12-14T01:00:59.692Z,102149.62
2018-12-14T01:03:07.543Z,102134.55
2018-12-14T01:05:12.563Z,102146.13
2018-12-14T01:07:17.272Z,102150.78
2018-12-14T01:09:22.463Z,102151.67
2018-12-14T01:11:29.906Z,102152.17
2018-12-14T01:13:35.270Z,102153.16
2018-12-14T01:15:39.901Z,102157.08
2018-12-14T01:17:47.266Z,102157.14
2018-12-14T01:19:52.027Z,102158.06
2018-12-14T01:21:57.554Z,102163.55
2018-12-14T01:24:05.723Z,102166.16
2018-12-14T01:26:10.511Z,102164.47
2018-12-14T01:28:18.470Z,102164.41
2018-12-14T01:30:23.675Z,102167.39
2018-12-14T01:32:31.515Z,102167.17
2018-12-14T01:34:43.583Z,102167.02
2018-12-14T01:36:48.627Z,102173.54
2018-12-14T01:38:56.679Z,102169.82
2018-12-14T01:41:04.838Z,102168.64
2018-12-14T01:43:12.546Z,102169.77
2018-12-14T01:45:18.040Z,102169.75
2018-12-14T01:47:25.596Z,102171.55
2018-12-14T01:49:30.683Z,102170.20
2018-12-14T01:51:35.505Z,102167.84
2018-12-14T01:53:40.276Z,102164.09
2018-12-14T01:55:47.979Z,102164.61
2018-12-14T01:57:53.130Z,102167.21
2018-12-14T02:00:00.456Z,102167.11
2018-12-14T02:02:05.835Z,102169.13
2018-12-14T02:04:13.739Z,102169.07
2018-12-14T02:06:18.634Z,102165.90
2018-12-14T02:08:26.315Z,102160.03
2018-12-14T02:10:31.395Z,102165.34
2018-12-14T02:12:36.163Z,102163.88
2018-12-14T02:14:44.306Z,102163.03
2018-12-14T02:16:48.958Z,102160.42
2018-12-14T02:18:56.724Z,102160.11
2018-12-14T02:23:07.767Z,102156.16
2018-12-14T02:25:12.572Z,102150.50
2018-12-14T02:27:20.283Z,102108.42
2018-12-14T02:29:28.577Z,102145.44
2018-12-14T02:31:36.509Z,102155.08
2018-12-14T02:33:44.332Z,102147.21
2018-12-14T02:35:49.355Z,102151.11
2018-12-14T02:37:57.326Z,102152.86
2018-12-14T02:40:04.814Z,102113.22
2018-12-14T02:42:09.426Z,102149.16
2018-12-14T02:44:14.209Z,102146.17
2018-12-14T02:46:21.980Z,102145.52
2018-12-14T02:48:29.528Z,102147.52
2018-12-14T02:50:37.252Z,102153.41
2018-12-14T02:52:44.940Z,102148.91
2018-12-14T02:54:52.661Z,102149.33
2018-12-14T02:56:57.918Z,102152.86
2018-12-14T02:59:02.779Z,102152.94
2018-12-14T03:01:07.636Z,102115.41
2018-12-14T03:03:15.269Z,102153.56
2018-12-14T03:05:23.087Z,102151.53
2018-12-14T03:07:30.824Z,102152.48
2018-12-14T03:09:36.113Z,102149.52
2018-12-14T03:11:44.176Z,102149.78
2018-12-14T03:13:52.067Z,102150.75
2018-12-14T03:16:01.921Z,102152.16
2018-12-14T03:18:06.750Z,102151.90
2018-12-14T03:20:11.567Z,102152.92
2018-12-14T03:22:16.459Z,102149.89
2018-12-14T03:24:23.904Z,102153.08
2018-12-14T03:26:29.092Z,102147.48
2018-12-14T03:28:36.809Z,102146.68
2018-12-14T03:30:44.817Z,102144.78
2018-12-14T03:32:49.755Z,102142.68
2018-12-14T03:34:54.336Z,102144.70
2018-12-14T03:37:02.221Z,102146.61
2018-12-14T03:39:15.934Z,102150.48
2018-12-14T03:41:23.505Z,102156.30
2018-12-14T03:43:28.589Z,102156.63
2018-12-14T03:45:36.332Z,102151.23
2018-12-14T03:47:39.046Z,102151.05
2018-12-14T03:49:46.862Z,102153.22
2018-12-14T03:51:52.206Z,102144.87
2018-12-14T03:53:59.595Z,102143.58
2018-12-14T03:56:07.914Z,102143.31
2018-12-14T03:58:15.696Z,102141.31
2018-12-14T04:00:30.612Z,102134.02
2018-12-14T04:02:35.826Z,102137.68
2018-12-14T04:04:43.408Z,102140.66
2018-12-14T04:06:51.243Z,102135.55
2018-12-14T04:08:56.353Z,102145.13
2018-12-14T04:11:04.524Z,102146.35
2018-12-14T04:13:12.252Z,102143.45
2018-12-14T04:15:20.373Z,102139.90
2018-12-14T04:17:28.371Z,102115.78
2018-12-14T04:19:36.395Z,102145.25
2018-12-14T04:21:44.456Z,102151.01
2018-12-14T04:23:52.767Z,102149.97
2018-12-14T04:26:00.489Z,102152.80
2018-12-14T04:28:08.508Z,102154.51
2018-12-14T04:30:13.724Z,102152.77
2018-12-14T04:32:18.753Z,102155.16
2018-12-14T04:34:26.886Z,102150.16
2018-12-14T04:36:34.784Z,102152.06
2018-12-14T04:38:37.472Z,102150.05
2018-12-14T04:40:45.257Z,102118.84
2018-12-14T04:42:53.670Z,102158.55
2018-12-14T04:44:58.303Z,102156.94
2018-12-14T04:47:03.473Z,102154.97
2018-12-14T04:49:10.877Z,102152.88
2018-12-14T04:51:18.641Z,102152.11
2018-12-14T04:53:26.647Z,102151.09
2018-12-14T04:55:31.909Z,102155.04
2018-12-14T04:57:39.870Z,102155.66
2018-12-14T04:59:44.683Z,102155.17
2018-12-14T05:01:52.309Z,102157.62
2018-12-14T05:04:00.324Z,102157.45
2018-12-14T05:06:08.565Z,102155.33
2018-12-14T05:08:16.407Z,102155.60
2018-12-14T05:10:24.010Z,102160.93
2018-12-14T05:12:28.759Z,102159.30
2018-12-14T05:14:36.632Z,102167.31
2018-12-14T05:16:45.390Z,102163.46
2018-12-14T05:18:50.350Z,102164.22
2018-12-14T05:20:58.249Z,102157.36
2018-12-14T05:23:05.981Z,102156.86
2018-12-14T05:25:14.055Z,102152.37
2018-12-14T05:27:22.140Z,102159.51
2018-12-14T05:31:33.781Z,102158.03
2018-12-14T05:33:38.861Z,102160.47
2018-12-14T05:35:46.282Z,102161.21
2018-12-14T05:37:53.984Z,102163.88
2018-12-14T05:39:58.932Z,102164.71
2018-12-14T05:42:06.627Z,102170.19
2018-12-14T05:44:14.371Z,102169.30
2018-12-14T05:46:19.276Z,102162.35
2018-12-14T05:48:26.997Z,102163.30
2018-12-14T05:50:32.068Z,102162.52
2018-12-14T05:52:36.688Z,102167.37
2018-12-14T05:54:39.961Z,102163.00
2018-12-14T05:56:44.589Z,102171.20
2018-12-14T05:58:52.995Z,102164.81
2018-12-14T06:00:57.967Z,102169.37
2018-12-14T06:03:00.904Z,102165.17
2018-12-14T06:05:08.997Z,102176.16
2018-12-14T06:07:17.208Z,102177.25
2018-12-14T06:09:22.062Z,102174.72
2018-12-14T06:11:27.018Z,102183.52
2018-12-14T06:13:31.514Z,102187.88
2018-12-14T06:15:39.326Z,102182.50
2018-12-14T06:17:47.136Z,102186.77
2018-12-14T06:19:51.976Z,102188.75
2018-12-14T06:21:59.761Z,102187.41
2018-12-14T06:24:07.713Z,102188.02
2018-12-14T06:26:12.744Z,102183.50
2018-12-14T06:28:20.512Z,102200.64
2018-12-14T06:30:28.552Z,102196.89
2018-12-14T06:32:36.688Z,102197.48
2018-12-14T06:34:39.438Z,102202.10
2018-12-14T06:36:47.243Z,102204.00
2018-12-14T06:38:54.940Z,102206.02
2018-12-14T06:40:59.692Z,102208.91
2018-12-14T06:43:02.852Z,102213.11
2018-12-14T06:45:11.070Z,102216.73
2018-12-14T06:47:14.525Z,102194.81
2018-12-14T06:49:19.352Z,102216.34
2018-12-14T06:51:27.864Z,102221.19
2018-12-14T06:53:32.456Z,102215.22
2018-12-14T06:55:40.426Z,102224.69
2018-12-14T06:57:48.098Z,102222.08
2018-12-14T06:59:52.853Z,102222.04
2018-12-14T07:01:57.948Z,102221.72
2018-12-14T07:04:00.820Z,102223.50
2018-12-14T07:06:05.568Z,102217.50
2018-12-14T07:08:10.623Z,102225.49
2018-12-14T07:10:18.496Z,102229.28
2018-12-14T07:12:30.284Z,102225.30
2018-12-14T07:14:33.377Z,102228.37
2018-12-14T07:16:41.268Z,102228.87
2018-12-14T07:18:49.172Z,102231.25
2018-12-14T07:20:57.340Z,102226.23
2018-12-14T07:23:05.008Z,102229.87
2018-12-14T07:25:09.975Z,102236.22
2018-12-14T07:27:17.611Z,102236.16
2018-12-14T07:29:22.756Z,102237.75
2018-12-14T07:31:27.592Z,102239.73
2018-12-14T07:33:35.540Z,102235.43
2018-12-14T07:35:43.725Z,102234.06
2018-12-14T07:37:48.732Z,102238.30
2018-12-14T07:39:53.651Z,102241.25
2018-12-14T07:42:01.563Z,102246.47
2018-12-14T07:44:04.417Z,102241.45
2018-12-14T07:46:12.488Z,102247.89
2018-12-14T07:48:17.485Z,102247.72
2018-12-14T07:50:25.164Z,102253.44
2018-12-14T07:52:28.025Z,102254.38
2018-12-14T07:54:32.719Z,102237.31
2018-12-14T07:56:40.472Z,102256.70
2018-12-14T07:58:48.625Z,102261.96
2018-12-14T08:00:53.269Z,102263.66
2018-12-14T08:02:59.038Z,102266.94
2018-12-14T08:05:04.581Z,102253.55
2018-12-14T08:07:09.937Z,102263.55
2018-12-14T08:09:17.617Z,102271.50
2018-12-14T08:11:22.356Z,102270.32
2018-12-14T08:13:34.838Z,102267.48
2018-12-14T08:15:40.288Z,102271.53
2018-12-14T08:17:48.280Z,102271.98
2018-12-14T08:19:53.162Z,102274.56
2018-12-14T08:21:58.967Z,102276.70
2018-12-14T08:24:02.410Z,102278.92
2018-12-14T08:26:15.928Z,102281.18
2018-12-14T08:28:20.976Z,102283.26
2018-12-14T08:30:25.964Z,102282.84
2018-12-14T08:32:31.813Z,102291.05
2018-12-14T08:34:37.367Z,102294.00
2018-12-14T08:38:47.125Z,102298.38
2018-12-14T08:40:55.575Z,102302.61
2018-12-14T08:43:03.417Z,102298.77
2018-12-14T08:45:08.955Z,102301.10
2018-12-14T08:47:17.150Z,102302.30
2018-12-14T08:49:22.049Z,102308.37
2018-12-14T08:51:26.838Z,102305.29
2018-12-14T08:53:32.064Z,102308.30
2018-12-14T08:55:40.684Z,102312.30
2018-12-14T08:57:48.724Z,102318.02
2018-12-14T08:59:51.786Z,102318.02
2018-12-14T09:01:56.440Z,102317.67
2018-12-14T09:04:04.287Z,102312.41
2018-12-14T09:06:14.155Z,102323.77
2018-12-14T09:08:19.326Z,102319.23
2018-12-14T09:10:27.212Z,102322.23
2018-12-14T09:12:38.923Z,102321.84
2018-12-14T09:14:43.937Z,102326.53
2018-12-14T09:16:58.304Z,102323.36
2018-12-14T09:19:06.566Z,102325.52
2018-12-14T09:21:11.798Z,102325.50
2018-12-14T09:23:20.160Z,102326.58
2018-12-14T09:25:28.140Z,102329.84
2018-12-14T09:27:31.164Z,102327.91
2018-12-14T09:29:36.260Z,102330.19
2018-12-14T09:31:41.130Z,102334.54
2018-12-14T09:33:46.613Z,102329.86
2018-12-14T09:35:51.341Z,102329.41
2018-12-14T09:37:56.151Z,102335.83
2018-12-14T09:44:11.348Z,102334.27
2018-12-14T09:50:26.142Z,102327.81
2018-12-14T09:52:30.850Z,102328.03
2018-12-14T09:54:35.800Z,102327.48
2018-12-14T09:56:40.687Z,102325.27
2018-12-14T09:58:48.241Z,102323.05
2018-12-14T10:00:56.280Z,102328.23
2018-12-14T10:03:01.625Z,102324.33
2018-12-14T10:05:09.530Z,102329.97
2018-12-14T10:07:14.582Z,102326.13
2018-12-14T10:09:19.348Z,102326.84
2018-12-14T10:11:27.112Z,102324.44
2018-12-14T10:13:35.060Z,102329.81
2018-12-14T10:15:42.647Z,102329.34
2018-12-14T10:17:45.702Z,102330.27
2018-12-14T10:19:48.940Z,102330.80
2018-12-14T10:21:53.571Z,102324.98
2018-12-14T10:23:58.473Z,102329.16
2018-12-14T10:26:03.300Z,102333.27
2018-12-14T10:28:10.885Z,102329.78
2018-12-14T10:30:16.329Z,102331.09
2018-12-14T10:32:24.312Z,102321.08
2018-12-14T10:34:29.097Z,102325.78
2018-12-14T10:36:33.957Z,102331.36
2018-12-14T10:38:38.789Z,102328.22
2018-12-14T10:40:43.550Z,102325.27
2018-12-14T10:42:51.089Z,102330.55
2018-12-14T10:44:58.952Z,102327.78
2018-12-14T10:47:06.700Z,102326.38
2018-12-14T10:51:14.749Z,102322.30
2018-12-14T10:53:19.322Z,102334.36
2018-12-14T10:55:23.939Z,102332.66
2018-12-14T10:57:31.692Z,102324.83
2018-12-14T10:59:39.148Z,102329.08
2018-12-14T11:01:51.577Z,102328.45
2018-12-14T11:03:59.756Z,102324.53
2018-12-14T11:06:02.900Z,102323.88
2018-12-14T11:08:08.041Z,102328.14
2018-12-14T11:10:13.832Z,102329.48
2018-12-14T11:12:18.669Z,102326.07
2018-12-14T11:14:23.710Z,102327.69
2018-12-14T11:16:31.241Z,102330.94
2018-12-14T11:18:35.980Z,102329.33
2018-12-14T11:20:41.094Z,102324.66
2018-12-14T11:22:50.568Z,102330.14
2018-12-14T11:24:55.405Z,102330.64
2018-12-14T11:27:00.616Z,102330.91
2018-12-14T11:29:05.334Z,102337.84
2018-12-14T11:31:10.748Z,102340.80
2018-12-14T11:33:18.064Z,102335.92
2018-12-14T11:35:22.896Z,102338.66
2018-12-14T11:37:24.342Z,102336.66
2018-12-14T11:39:29.268Z,102338.33
2018-12-14T11:41:36.912Z,102339.00
2018-12-14T11:43:44.819Z,102342.07
2018-12-14T11:45:49.845Z,102347.16
2018-12-14T11:47:54.861Z,102345.05
2018-12-14T11:52:06.821Z,102351.21
2018-12-14T11:54:14.616Z,102346.66
2018-12-14T11:56:19.868Z,102348.13
2018-12-14T11:58:24.750Z,102342.45
2018-12-14T12:00:29.917Z,102341.48
2018-12-14T12:02:34.722Z,102342.67
2018-12-14T12:04:42.292Z,102338.81
2018-12-14T12:06:50.237Z,102342.08
2018-12-14T12:08:53.343Z,102342.73
2018-12-14T12:11:00.780Z,102337.41
2018-12-14T12:13:06.047Z,102346.12
2018-12-14T12:15:10.499Z,102343.78
2018-12-14T12:17:15.292Z,102342.23
2018-12-14T12:19:23.161Z,102345.52
2018-12-14T12:21:28.664Z,102340.80
2018-12-14T12:24:01.088Z,102341.41
2018-12-14T12:26:15.353Z,102342.84
2018-12-14T12:28:18.234Z,102339.78
2018-12-14T12:30:26.073Z,102336.72
2018-12-14T12:32:33.420Z,102338.41
2018-12-14T12:34:40.848Z,102339.34
2018-12-14T12:36:45.652Z,102334.47
2018-12-14T12:38:50.753Z,102335.41
2018-12-14T12:40:55.267Z,102329.16
2018-12-14T12:42:59.936Z,102331.87
2018-12-14T12:45:08.277Z,102327.56
2018-12-14T12:47:10.988Z,102327.31
2018-12-14T12:49:15.747Z,102327.55
2018-12-14T12:53:27.019Z,102325.67
2018-12-14T12:55:29.937Z,102334.41
2018-12-14T12:57:35.020Z,102327.20
2018-12-14T12:59:38.052Z,102329.78
2018-12-14T13:01:53.232Z,102330.95
2018-12-14T13:04:06.949Z,102337.84
2018-12-14T13:06:11.589Z,102340.02
2018-12-14T13:08:19.186Z,102342.88
2018-12-14T13:10:24.248Z,102311.59
2018-12-14T13:12:31.844Z,102342.59
2018-12-14T13:14:41.354Z,102340.77
2018-12-14T13:16:46.449Z,102342.25
2018-12-14T13:18:51.301Z,102338.66
2018-12-14T13:20:56.121Z,102349.11
2018-12-14T13:23:00.959Z,102348.79
2018-12-14T13:25:06.178Z,102345.17
2018-12-14T13:27:13.504Z,102342.95
2018-12-14T13:29:21.369Z,102344.47
2018-12-14T13:31:24.633Z,102345.66
2018-12-14T13:33:32.472Z,102344.86
2018-12-14T13:35:37.548Z,102344.93
2018-12-14T13:37:42.138Z,102340.98
2018-12-14T13:39:46.988Z,102344.59
2018-12-14T13:41:58.839Z,102349.64
2018-12-14T13:44:03.758Z,102345.98
2018-12-14T13:46:08.588Z,102348.97
2018-12-14T13:48:13.555Z,102348.22
2018-12-14T13:50:21.194Z,102349.87
2018-12-14T13:54:29.858Z,102354.75
2018-12-14T13:56:34.608Z,102360.70
2018-12-14T13:58:39.952Z,102358.72
2018-12-14T14:00:44.547Z,102358.50
2018-12-14T14:02:49.834Z,102360.03
2018-12-14T14:04:57.941Z,102325.36
2018-12-14T14:07:05.817Z,102357.86
2018-12-14T14:09:13.885Z,102366.62
2018-12-14T14:11:18.950Z,102367.84
2018-12-14T14:13:23.987Z,102368.20
2018-12-14T14:15:31.651Z,102369.09
2018-12-14T14:17:36.945Z,102365.09
2018-12-14T14:19:40.624Z,102364.53
2018-12-14T14:21:49.204Z,102379.28
2018-12-14T14:23:54.221Z,102370.31
2018-12-14T14:25:59.164Z,102373.94
2018-12-14T14:28:07.540Z,102374.80
2018-12-14T14:30:12.381Z,102378.64
2018-12-14T14:32:20.164Z,102381.86
2018-12-14T14:34:25.000Z,102380.89
2018-12-14T14:36:30.665Z,102384.19
2018-12-14T14:38:35.446Z,102385.31
2018-12-14T14:40:43.157Z,102387.36
2018-12-14T14:42:48.771Z,102391.20
2018-12-14T14:44:59.610Z,102393.11
2018-12-14T14:47:00.780Z,102393.16
2018-12-14T14:49:05.503Z,102389.47
2018-12-14T14:51:13.674Z,102384.09
2018-12-14T14:53:21.403Z,102384.67
2018-12-14T14:55:26.301Z,102390.40
2018-12-14T14:57:32.044Z,102387.16
2018-12-14T14:59:35.330Z,102395.25
2018-12-14T15:01:40.341Z,102392.84
2018-12-14T15:03:45.369Z,102397.08
2018-12-14T15:05:49.414Z,102396.66
2018-12-14T15:07:55.104Z,102398.42
2018-12-14T15:10:04.034Z,102398.13
2018-12-14T15:12:09.069Z,102400.28
2018-12-14T15:14:13.856Z,102397.72
2018-12-14T15:16:18.695Z,102402.51
2018-12-14T15:18:26.601Z,102406.71
2018-12-14T15:20:31.434Z,102407.50
2018-12-14T15:22:37.037Z,102406.72
2018-12-14T15:24:48.959Z,102402.35
2018-12-14T15:26:54.008Z,102405.48
2018-12-14T15:28:58.818Z,102408.73
2018-12-14T15:31:03.004Z,102406.28
2018-12-14T15:33:08.732Z,102406.98
2018-12-14T15:35:13.624Z,102408.69
2018-12-14T15:37:19.418Z,102406.77
2018-12-14T15:39:38.356Z,102408.39
2018-12-14T15:41:46.256Z,102407.48
2018-12-14T15:43:52.050Z,102410.45
2018-12-14T15:46:00.352Z,102414.55
2018-12-14T15:48:15.521Z,102415.77
2018-12-14T15:50:24.197Z,102416.37
2018-12-14T15:52:28.033Z,102420.46
2018-12-14T15:54:31.463Z,102417.88
2018-12-14T15:56:36.340Z,102424.05
2018-12-14T15:58:39.933Z,102418.87
2018-12-14T16:00:48.563Z,102418.20
2018-12-14T16:02:50.272Z,102425.86
2018-12-14T16:05:00.483Z,102422.69
2018-12-14T16:09:43.670Z,102424.81
2018-12-14T16:11:49.392Z,102421.62
2018-12-14T16:13:58.223Z,102426.94
2018-12-14T16:16:04.021Z,102429.08
2018-12-14T16:18:09.278Z,102431.94
2018-12-14T16:20:11.088Z,102436.28
2018-12-14T16:22:25.697Z,102444.59
2018-12-14T16:24:27.316Z,102444.78
2018-12-14T16:26:30.565Z,102447.63
2018-12-14T16:28:38.916Z,102442.20
2018-12-14T16:30:44.433Z,102445.69
2018-12-14T16:32:49.202Z,102452.48
2018-12-14T16:34:57.200Z,102443.28
2018-12-14T16:37:02.502Z,102441.44
2018-12-14T16:39:07.561Z,102434.89
2018-12-14T16:41:12.737Z,102435.84
2018-12-14T16:43:20.605Z,102432.24
2018-12-14T16:45:39.218Z,102428.16
2018-12-14T16:47:43.905Z,102431.94
2018-12-14T16:49:49.485Z,102436.69
2018-12-14T16:51:54.312Z,102434.38
2018-12-14T16:54:04.515Z,102438.42
2018-12-14T16:56:13.028Z,102436.09
2018-12-14T16:58:22.990Z,102439.37
2018-12-14T17:00:31.672Z,102437.20
2018-12-14T17:02:40.366Z,102436.86
2018-12-14T17:04:48.306Z,102432.88
2018-12-14T17:06:56.288Z,102432.32
2018-12-14T17:09:05.195Z,102396.06
2018-12-14T17:11:14.883Z,102431.41
2018-12-14T17:13:17.897Z,102429.84
2018-12-14T17:15:22.784Z,102444.52
2018-12-14T17:17:30.803Z,102444.42
2018-12-14T17:19:42.728Z,102448.09
2018-12-14T17:21:50.461Z,102454.36
2018-12-14T17:23:58.161Z,102458.59
2018-12-14T17:26:06.168Z,102460.14
2018-12-14T17:28:13.851Z,102456.30
2018-12-14T17:30:21.683Z,102454.78
2018-12-14T17:32:29.426Z,102459.88
2018-12-14T17:34:37.177Z,102454.61
2018-12-14T17:36:40.302Z,102455.44
2018-12-14T17:38:45.448Z,102455.39
2018-12-14T17:40:53.032Z,102448.26
2018-12-14T17:43:01.397Z,102454.41
2018-12-14T17:45:06.380Z,102456.58
2018-12-14T17:47:18.204Z,102452.20
2018-12-14T17:49:26.320Z,102455.41
2018-12-14T17:51:35.186Z,102453.89
2018-12-14T17:53:43.104Z,102457.88
2018-12-14T18:02:09.695Z,102457.63
2018-12-14T18:06:22.804Z,102465.05
2018-12-14T18:08:30.638Z,102463.61
2018-12-14T18:10:35.618Z,102463.48
2018-12-14T18:12:40.644Z,102460.54
2018-12-14T18:14:52.945Z,102461.55
2018-12-14T18:16:57.743Z,102425.66
2018-12-14T18:19:03.369Z,102464.29
2018-12-14T18:21:06.963Z,102467.63
2018-12-14T18:23:11.601Z,102467.01
2018-12-14T18:25:17.331Z,102475.40
2018-12-14T18:27:24.812Z,102470.05
2018-12-14T18:29:32.703Z,102472.82
2018-12-14T18:34:08.846Z,102473.26
2018-12-14T18:36:10.565Z,102474.55
2018-12-14T18:38:14.115Z,102478.98
2018-12-14T18:40:47.244Z,102475.27
2018-12-14T18:42:48.741Z,102475.80
2018-12-14T18:44:49.965Z,102479.92
2018-12-14T18:46:51.284Z,102481.94
2018-12-14T18:49:04.152Z,102485.46
2018-12-14T18:51:05.610Z,102482.90
2018-12-14T18:53:24.438Z,102482.17
2018-12-14T18:55:26.963Z,102482.19
2018-12-14T18:57:40.462Z,102483.23
2018-12-14T19:02:22.476Z,102489.62
2018-12-14T19:07:28.767Z,102497.97
2018-12-14T19:09:36.889Z,102503.55
2018-12-14T19:11:41.354Z,102507.05
2018-12-14T19:13:50.941Z,102504.42
2018-12-14T19:16:23.396Z,102510.67
2018-12-14T19:18:31.549Z,102511.14
2018-12-14T19:20:45.392Z,102515.45
2018-12-14T19:22:49.903Z,102522.17
2018-12-14T19:24:52.634Z,102518.61
2018-12-14T19:26:57.484Z,102520.70
2018-12-14T19:29:04.857Z,102514.52
2018-12-14T19:31:12.637Z,102521.06
2018-12-14T19:33:20.513Z,102515.94
2018-12-14T19:35:25.204Z,102515.28
2018-12-14T19:37:34.776Z,102526.04
2018-12-14T19:39:40.040Z,102526.81
2018-12-14T19:41:45.251Z,102527.68
2018-12-14T19:43:50.472Z,102523.04
2018-12-14T19:45:58.163Z,102526.63
2018-12-14T19:48:02.824Z,102527.19
2018-12-14T19:50:07.924Z,102524.92
2018-12-14T19:52:12.817Z,102530.50
2018-12-14T19:54:22.759Z,102531.73
2018-12-14T19:56:35.108Z,102538.31
2018-12-14T19:58:43.423Z,102537.07
2018-12-14T20:00:48.348Z,102534.92
2018-12-14T20:02:53.126Z,102534.47
2018-12-14T20:05:01.858Z,102536.75
2018-12-14T20:07:07.880Z,102533.69
2018-12-14T20:09:11.213Z,102536.13
2018-12-14T20:11:18.889Z,102535.75
2018-12-14T20:13:25.925Z,102542.34
2018-12-14T20:15:30.936Z,102543.39
2018-12-14T20:17:38.617Z,102545.13
2018-12-14T20:19:43.516Z,102548.59
2018-12-14T20:21:48.410Z,102544.55
2018-12-14T20:23:56.075Z,102549.08
2018-12-14T20:26:05.921Z,102554.63
2018-12-14T20:28:09.835Z,102556.75
2018-12-14T20:30:21.645Z,102556.20
2018-12-14T20:32:26.793Z,102556.88
2018-12-14T20:34:34.397Z,102558.81
2018-12-14T20:36:40.695Z,102566.14
2018-12-14T20:39:08.034Z,102561.06
2018-12-14T20:41:27.872Z,102565.55
2018-12-14T20:43:33.111Z,102565.63
2018-12-14T20:45:37.624Z,102565.61
2018-12-14T20:47:41.712Z,102561.02
2018-12-14T20:49:50.129Z,102560.77
2018-12-14T20:51:57.477Z,102565.14
2018-12-14T20:54:02.586Z,102562.61
2018-12-14T20:56:11.354Z,102563.44
2018-12-14T20:58:19.077Z,102561.63
2018-12-14T21:00:21.958Z,102561.52
2018-12-14T21:02:23.420Z,102561.61
2018-12-14T21:04:29.131Z,102564.32
2018-12-14T21:06:38.889Z,102562.66
2018-12-14T21:08:44.232Z,102564.61
2018-12-14T21:10:56.053Z,102563.91
2018-12-14T21:13:03.059Z,102569.57
2018-12-14T21:15:07.845Z,102567.37
2018-12-14T21:17:13.333Z,102562.81
2018-12-14T21:21:53.653Z,102568.38
2018-12-14T21:23:58.337Z,102561.95
2018-12-14T21:26:05.757Z,102565.41
2018-12-14T21:28:11.513Z,102564.84
2018-12-14T21:30:14.341Z,102564.08
2018-12-14T21:32:22.115Z,102564.51
2018-12-14T21:34:31.688Z,102562.34
2018-12-14T21:36:36.796Z,102562.31
2018-12-14T21:38:44.968Z,102563.29
2018-12-14T21:40:47.861Z,102563.55
2018-12-14T21:42:53.508Z,102563.95
2018-12-14T21:45:12.023Z,102569.64
2018-12-14T21:47:30.955Z,102565.84
2018-12-14T21:49:38.880Z,102566.18
2018-12-14T21:51:43.818Z,102570.05
2018-12-14T21:53:56.756Z,102567.53
2018-12-14T21:56:01.526Z,102565.80
2018-12-14T21:58:09.697Z,102567.30
2018-12-14T22:00:17.561Z,102560.57
2018-12-14T22:02:24.255Z,102564.36
2018-12-14T22:04:28.931Z,102552.72
2018-12-14T22:06:36.692Z,102560.11
2018-12-14T22:08:44.283Z,102553.63
2018-12-14T22:10:51.902Z,102557.58
2018-12-14T22:12:59.562Z,102555.55
2018-12-14T22:15:12.163Z,102556.87
2018-12-14T22:17:18.953Z,102554.53
2018-12-14T22:19:29.006Z,102556.01
2018-12-14T22:21:36.772Z,102552.52
2018-12-14T22:23:41.288Z,102553.94
2018-12-14T22:25:45.889Z,102547.20
2018-12-14T22:27:52.112Z,102552.37
2018-12-14T22:30:08.192Z,102552.51
2018-12-14T22:32:21.255Z,102557.91
2018-12-14T22:34:28.234Z,102559.09
2018-12-14T22:36:36.108Z,102561.38
2018-12-14T22:38:41.002Z,102553.66
2018-12-14T22:40:46.899Z,102555.48
2018-12-14T22:42:51.917Z,102551.39
2018-12-14T22:44:59.844Z,102554.80
2018-12-14T22:47:04.742Z,102554.42
2018-12-14T22:49:09.742Z,102551.51
2018-12-14T22:51:14.416Z,102551.33
2018-12-14T22:53:26.327Z,102556.12
2018-12-14T22:55:34.045Z,102559.73
2018-12-14T22:57:37.012Z,102558.48
2018-12-14T22:59:41.694Z,102554.44
2018-12-14T23:01:47.721Z,102554.08
2018-12-14T23:03:52.084Z,102559.16
2018-12-14T23:06:05.919Z,102558.61
2018-12-14T23:08:11.147Z,102559.67
2018-12-14T23:10:18.533Z,102562.39
2018-12-14T23:14:27.294Z,102561.87
2018-12-14T23:16:35.094Z,102561.00
2018-12-14T23:18:40.063Z,102559.58
2018-12-14T23:20:44.857Z,102561.64
2018-12-14T23:22:49.716Z,102566.44
2018-12-14T23:25:01.532Z,102566.31
2018-12-14T23:27:06.054Z,102565.84
2018-12-14T23:29:09.228Z,102569.94
2018-12-14T23:31:15.198Z,102572.95
2018-12-14T23:33:20.173Z,102572.92
2018-12-14T23:35:27.748Z,102575.34
2018-12-14T23:37:40.831Z,102574.49
2018-12-14T23:39:45.674Z,102568.52
2018-12-14T23:41:50.482Z,102568.02
2018-12-14T23:44:20.582Z,102569.92
2018-12-14T23:46:32.853Z,102567.48
2018-12-14T23:48:37.687Z,102569.29
2018-12-14T23:50:42.337Z,102571.42
2018-12-14T23:52:55.174Z,102571.24
2018-12-14T23:54:58.316Z,102575.40
2018-12-14T23:57:03.474Z,102574.41
2018-12-14T23:59:19.611Z,102571.20
